createdAt,value
2023-04-28T00:00:56.425Z,3.07
2023-04-28T00:03:24.405Z,3.04
2023-04-28T00:05:54.035Z,2.99
2023-04-28T00:08:23.630Z,2.98
2023-04-28T00:10:51.517Z,2.98
2023-04-28T00:13:19.623Z,2.96
2023-04-28T00:15:47.536Z,2.99
2023-04-28T00:18:15.486Z,3.02
2023-04-28T00:20:43.649Z,2.97
2023-04-28T00:23:11.686Z,2.99
2023-04-28T00:25:39.740Z,2.99
2023-04-28T00:28:09.317Z,2.96
2023-04-28T00:30:37.554Z,2.96
2023-04-28T00:33:06.167Z,2.99
2023-04-28T00:35:34.335Z,2.99
2023-04-28T00:38:02.545Z,3.01
2023-04-28T00:40:39.580Z,3.01
2023-04-28T00:43:07.787Z,3.01
2023-04-28T00:45:36.120Z,2.97
2023-04-28T00:48:04.667Z,2.90
2023-04-28T00:50:33.633Z,2.80
2023-04-28T00:53:01.934Z,2.69
2023-04-28T00:55:34.281Z,2.64
2023-04-28T00:58:03.322Z,2.59
2023-04-28T01:00:31.311Z,2.53
2023-04-28T01:02:59.981Z,2.51
2023-04-28T01:05:30.760Z,2.50
2023-04-28T01:07:58.774Z,2.46
2023-04-28T01:10:26.865Z,2.42
2023-04-28T01:12:54.850Z,2.35
2023-04-28T01:15:23.652Z,2.27
2023-04-28T01:17:56.285Z,2.17
2023-04-28T01:20:24.497Z,2.08
2023-04-28T01:22:53.762Z,2.05
2023-04-28T01:25:21.832Z,1.99
2023-04-28T01:27:50.659Z,1.95
2023-04-28T01:30:18.762Z,1.97
2023-04-28T01:32:46.895Z,1.98
2023-04-28T01:35:14.831Z,1.97
2023-04-28T01:37:42.705Z,2.04
2023-04-28T01:40:12.002Z,2.12
2023-04-28T01:42:40.125Z,2.11
2023-04-28T01:45:08.909Z,2.16
2023-04-28T01:47:38.176Z,2.19
2023-04-28T01:50:07.199Z,2.26
2023-04-28T01:52:37.114Z,2.31
2023-04-28T01:55:06.215Z,2.39
2023-04-28T01:57:35.889Z,2.46
2023-04-28T02:00:05.426Z,2.51
2023-04-28T02:02:37.308Z,2.55
2023-04-28T02:05:05.955Z,2.57
2023-04-28T02:07:33.918Z,2.61
2023-04-28T02:10:02.170Z,2.60
2023-04-28T02:12:30.278Z,2.62
2023-04-28T02:14:58.102Z,2.64
2023-04-28T02:17:31.316Z,2.61
2023-04-28T02:19:59.326Z,2.57
2023-04-28T02:22:28.098Z,2.50
2023-04-28T02:24:56.461Z,2.45
2023-04-28T02:27:24.448Z,2.44
2023-04-28T02:29:52.785Z,2.46
2023-04-28T02:32:21.007Z,2.48
2023-04-28T02:34:55.818Z,2.45
2023-04-28T02:37:25.407Z,2.44
2023-04-28T02:39:53.587Z,2.40
2023-04-28T02:42:23.692Z,2.35
2023-04-28T02:44:52.057Z,2.33
2023-04-28T02:47:19.903Z,2.31
2023-04-28T02:49:48.159Z,2.24
2023-04-28T02:52:17.273Z,2.15
2023-04-28T02:54:49.269Z,2.16
2023-04-28T02:57:18.990Z,2.17
2023-04-28T02:59:47.041Z,2.19
2023-04-28T03:02:16.016Z,2.20
2023-04-28T03:04:44.695Z,2.22
2023-04-28T03:07:12.765Z,2.19
2023-04-28T03:09:42.207Z,2.17
2023-04-28T03:12:11.087Z,2.12
2023-04-28T03:14:39.144Z,2.10
2023-04-28T03:17:07.653Z,2.09
2023-04-28T03:19:35.916Z,2.10
2023-04-28T03:22:03.829Z,2.10
2023-04-28T03:24:32.976Z,2.06
2023-04-28T03:27:02.559Z,2.07
2023-04-28T03:29:32.663Z,2.10
2023-04-28T03:32:00.774Z,2.18
2023-04-28T03:34:28.966Z,2.22
2023-04-28T03:36:57.012Z,2.17
2023-04-28T03:39:31.364Z,2.16
2023-04-28T03:41:59.485Z,2.18
2023-04-28T03:44:46.146Z,2.23
2023-04-28T03:47:14.642Z,2.27
2023-04-28T03:49:42.814Z,2.35
2023-04-28T03:52:11.049Z,2.39
2023-04-28T03:54:39.055Z,2.42
2023-04-28T03:57:07.224Z,2.38
2023-04-28T03:59:35.649Z,2.38
2023-04-28T04:02:03.764Z,2.45
2023-04-28T04:04:33.225Z,2.48
2023-04-28T04:07:01.747Z,2.53
2023-04-28T04:09:30.878Z,2.52
2023-04-28T04:11:59.341Z,2.60
2023-04-28T04:14:27.320Z,2.68
2023-04-28T04:16:55.960Z,2.82
2023-04-28T04:19:26.414Z,2.79
2023-04-28T04:21:55.712Z,2.78
2023-04-28T04:24:24.179Z,2.77
2023-04-28T04:26:52.338Z,2.71
2023-04-28T04:29:29.336Z,2.64
2023-04-28T04:31:57.738Z,2.66
2023-04-28T04:34:25.685Z,2.66
2023-04-28T04:36:54.920Z,2.62
2023-04-28T04:39:23.874Z,2.64
2023-04-28T04:41:51.840Z,2.58
2023-04-28T04:44:47.150Z,2.63
2023-04-28T04:47:28.730Z,2.63
2023-04-28T04:49:58.202Z,2.72
2023-04-28T04:52:26.449Z,2.93
2023-04-28T04:54:56.679Z,3.51
2023-04-28T04:57:27.166Z,4.52
2023-04-28T05:00:07.266Z,4.99
2023-04-28T05:02:35.690Z,5.69
2023-04-28T05:05:19.840Z,5.57
2023-04-28T05:08:10.204Z,5.79
2023-04-28T05:10:38.422Z,5.97
2023-04-28T05:13:07.116Z,6.80
2023-04-28T05:15:35.448Z,6.88
2023-04-28T05:18:22.752Z,7.55
2023-04-28T05:20:51.536Z,8.05
2023-04-28T05:23:20.653Z,8.82
2023-04-28T05:25:49.236Z,8.80
2023-04-28T05:28:17.753Z,9.12
2023-04-28T05:30:47.693Z,9.04
2023-04-28T05:33:16.753Z,9.22
2023-04-28T05:35:44.839Z,8.51
2023-04-28T05:38:12.772Z,8.09
2023-04-28T05:40:43.044Z,7.98
2023-04-28T05:43:13.435Z,7.89
2023-04-28T05:45:41.773Z,8.05
2023-04-28T05:48:10.610Z,7.99
2023-04-28T05:50:42.148Z,7.91
2023-04-28T05:53:11.869Z,8.03
2023-04-28T05:55:40.090Z,8.01
2023-04-28T05:58:08.512Z,7.98
2023-04-28T06:00:36.938Z,7.98
2023-04-28T06:03:06.053Z,7.72
2023-04-28T06:05:35.311Z,7.99
2023-04-28T06:08:03.745Z,8.18
2023-04-28T06:10:32.914Z,8.48
2023-04-28T06:13:05.220Z,8.34
2023-04-28T06:15:34.117Z,8.62
2023-04-28T06:18:02.399Z,8.58
2023-04-28T06:20:32.026Z,8.57
2023-04-28T06:23:00.721Z,8.73
2023-04-28T06:25:29.194Z,8.86
2023-04-28T06:27:58.028Z,9.16
2023-04-28T06:30:26.964Z,9.14
2023-04-28T06:32:58.213Z,9.50
2023-04-28T06:35:26.970Z,9.70
2023-04-28T06:37:55.887Z,9.71
2023-04-28T06:40:24.287Z,9.62
2023-04-28T06:42:57.907Z,9.93
2023-04-28T06:45:36.924Z,9.92
2023-04-28T06:48:06.786Z,10.01
2023-04-28T06:50:38.723Z,10.01
2023-04-28T06:53:08.633Z,10.22
2023-04-28T06:55:36.790Z,10.48
2023-04-28T06:58:04.907Z,10.41
2023-04-28T07:00:35.795Z,10.46
2023-04-28T07:03:04.651Z,10.98
2023-04-28T07:05:34.352Z,11.29
2023-04-28T07:08:02.662Z,11.81
2023-04-28T07:10:30.740Z,11.50
2023-04-28T07:12:59.422Z,11.51
2023-04-28T07:15:28.592Z,12.09
2023-04-28T07:17:56.630Z,12.64
2023-04-28T07:20:24.709Z,12.62
2023-04-28T07:22:53.064Z,12.54
2023-04-28T07:25:21.017Z,12.73
2023-04-28T07:27:49.089Z,12.49
2023-04-28T07:30:27.307Z,13.01
2023-04-28T07:32:56.824Z,12.87
2023-04-28T07:35:25.848Z,13.30
2023-04-28T07:37:55.003Z,13.80
2023-04-28T07:40:23.189Z,13.34
2023-04-28T07:42:52.506Z,13.48
2023-04-28T07:45:20.807Z,13.74
2023-04-28T07:47:48.730Z,14.09
2023-04-28T07:50:19.546Z,13.76
2023-04-28T07:52:48.315Z,13.92
2023-04-28T07:55:16.547Z,13.92
2023-04-28T07:57:44.607Z,13.94
2023-04-28T08:00:14.178Z,14.28
2023-04-28T08:02:42.228Z,14.30
2023-04-28T08:05:11.146Z,14.24
2023-04-28T08:07:39.450Z,14.41
2023-04-28T08:10:09.633Z,14.71
2023-04-28T08:12:38.915Z,14.48
2023-04-28T08:15:09.005Z,14.14
2023-04-28T08:17:37.496Z,14.18
2023-04-28T08:20:07.217Z,14.54
2023-04-28T08:22:35.669Z,14.63
2023-04-28T08:25:04.140Z,14.67
2023-04-28T08:27:32.808Z,15.24
2023-04-28T08:30:01.020Z,15.70
2023-04-28T08:32:29.032Z,15.33
2023-04-28T08:34:57.418Z,15.59
2023-04-28T08:37:26.539Z,14.93
2023-04-28T08:40:02.921Z,15.08
2023-04-28T08:42:32.395Z,14.81
2023-04-28T08:45:00.741Z,15.13
2023-04-28T08:47:40.953Z,14.88
2023-04-28T08:50:09.560Z,13.74
2023-04-28T08:52:39.303Z,12.93
2023-04-28T08:55:10.789Z,13.58
2023-04-28T08:57:44.630Z,13.56
2023-04-28T09:00:14.012Z,13.58
2023-04-28T09:02:42.786Z,13.67
2023-04-28T09:05:14.085Z,13.88
2023-04-28T09:07:49.021Z,13.76
2023-04-28T09:10:26.028Z,14.02
2023-04-28T09:12:56.214Z,13.74
2023-04-28T09:15:41.457Z,13.78
2023-04-28T09:18:14.949Z,13.78
2023-04-28T09:20:44.793Z,13.40
2023-04-28T09:23:22.749Z,13.75
2023-04-28T09:26:07.876Z,14.19
2023-04-28T09:28:36.946Z,13.78
2023-04-28T09:31:05.215Z,13.82
2023-04-28T09:33:33.209Z,14.20
2023-04-28T09:36:01.461Z,14.16
2023-04-28T09:38:29.513Z,13.90
2023-04-28T09:41:03.210Z,13.85
2023-04-28T09:43:33.297Z,14.59
2023-04-28T09:46:04.858Z,14.44
2023-04-28T09:48:38.245Z,14.48
2023-04-28T09:51:09.547Z,12.40
2023-04-28T09:53:39.558Z,12.11
2023-04-28T09:56:08.925Z,12.64
2023-04-28T09:58:40.876Z,12.55
2023-04-28T10:01:11.970Z,12.79
2023-04-28T10:03:41.773Z,13.82
2023-04-28T10:06:10.223Z,13.89
2023-04-28T10:08:40.591Z,13.86
2023-04-28T10:11:10.068Z,14.55
2023-04-28T10:13:39.101Z,15.18
2023-04-28T10:16:08.340Z,15.33
2023-04-28T10:18:38.063Z,15.02
2023-04-28T10:21:08.228Z,15.01
2023-04-28T10:23:55.757Z,15.54
2023-04-28T10:26:48.004Z,15.52
2023-04-28T10:29:16.677Z,15.84
2023-04-28T10:32:19.656Z,15.19
2023-04-28T10:34:49.964Z,14.46
2023-04-28T10:37:19.533Z,14.73
2023-04-28T10:40:37.184Z,14.81
2023-04-28T10:43:07.220Z,15.53
2023-04-28T10:45:56.013Z,15.71
2023-04-28T10:48:54.660Z,15.60
2023-04-28T10:51:24.756Z,16.39
2023-04-28T10:53:52.846Z,16.55
2023-04-28T10:56:26.868Z,15.95
2023-04-28T10:59:00.422Z,17.36
2023-04-28T11:01:35.764Z,16.34
2023-04-28T11:04:13.381Z,15.59
2023-04-28T11:07:14.928Z,15.52
2023-04-28T11:09:43.208Z,15.87
2023-04-28T11:12:11.403Z,16.06
2023-04-28T11:14:43.256Z,16.13
2023-04-28T11:17:17.639Z,16.73
2023-04-28T11:19:49.156Z,16.98
2023-04-28T11:22:20.156Z,16.79
2023-04-28T11:25:03.168Z,16.52
2023-04-28T11:27:33.849Z,15.85
2023-04-28T11:30:02.141Z,16.77
2023-04-28T11:32:36.970Z,16.59
2023-04-28T11:35:09.863Z,17.32
2023-04-28T11:37:39.314Z,17.64
2023-04-28T11:40:14.853Z,16.93
2023-04-28T11:42:49.924Z,16.41
2023-04-28T11:45:18.554Z,16.80
2023-04-28T11:47:46.685Z,17.25
2023-04-28T11:50:16.104Z,16.66
2023-04-28T11:52:53.567Z,16.07
2023-04-28T11:55:22.184Z,15.79
2023-04-28T11:58:10.248Z,15.74
2023-04-28T12:00:38.716Z,16.44
2023-04-28T12:03:10.432Z,16.99
2023-04-28T12:05:45.660Z,16.27
2023-04-28T12:08:15.488Z,15.59
2023-04-28T12:10:43.495Z,15.94
2023-04-28T12:13:17.912Z,15.64
2023-04-28T12:15:46.124Z,15.53
2023-04-28T12:18:16.612Z,15.27
2023-04-28T12:20:45.209Z,15.38
2023-04-28T12:23:13.158Z,15.20
2023-04-28T12:25:47.887Z,15.00
2023-04-28T12:28:16.803Z,14.88
2023-04-28T12:30:45.612Z,15.19
2023-04-28T12:33:27.819Z,15.41
2023-04-28T12:35:59.059Z,15.80
2023-04-28T12:38:28.586Z,15.40
2023-04-28T12:40:58.959Z,16.08
2023-04-28T12:43:29.278Z,17.35
2023-04-28T12:45:57.675Z,17.98
2023-04-28T12:48:25.980Z,18.41
2023-04-28T12:50:54.083Z,18.20
2023-04-28T12:53:21.898Z,18.36
2023-04-28T12:55:50.168Z,18.38
2023-04-28T12:58:18.478Z,17.32
2023-04-28T13:00:46.850Z,16.79
2023-04-28T13:03:16.168Z,16.40
2023-04-28T13:05:44.537Z,16.20
2023-04-28T13:08:14.947Z,16.49
2023-04-28T13:10:43.844Z,16.48
2023-04-28T13:13:11.839Z,16.61
2023-04-28T13:15:40.392Z,16.68
2023-04-28T13:18:08.541Z,15.19
2023-04-28T13:20:37.295Z,16.20
2023-04-28T13:23:05.349Z,16.80
2023-04-28T13:25:33.432Z,16.87
2023-04-28T13:28:01.793Z,18.20
2023-04-28T13:30:29.683Z,18.23
2023-04-28T13:32:57.980Z,17.53
2023-04-28T13:35:26.504Z,16.91
2023-04-28T13:38:02.218Z,16.75
2023-04-28T13:40:30.823Z,16.26
2023-04-28T13:42:58.994Z,16.06
2023-04-28T13:45:27.394Z,16.05
2023-04-28T13:47:55.617Z,16.22
2023-04-28T13:50:23.639Z,16.18
2023-04-28T13:52:52.185Z,16.02
2023-04-28T13:55:27.622Z,15.46
2023-04-28T13:57:56.924Z,15.47
2023-04-28T14:00:25.151Z,15.32
2023-04-28T14:02:53.978Z,15.33
2023-04-28T14:05:22.504Z,16.04
2023-04-28T14:07:53.455Z,15.85
2023-04-28T14:10:22.682Z,16.59
2023-04-28T14:12:50.581Z,16.83
2023-04-28T14:15:18.600Z,16.70
2023-04-28T14:17:46.820Z,16.99
2023-04-28T14:20:15.874Z,17.53
2023-04-28T14:22:44.880Z,17.61
2023-04-28T14:25:13.012Z,17.69
2023-04-28T14:27:40.911Z,17.23
2023-04-28T14:30:10.161Z,17.16
2023-04-28T14:32:40.103Z,17.09
2023-04-28T14:35:09.296Z,16.82
2023-04-28T14:37:37.617Z,17.40
2023-04-28T14:40:07.045Z,17.08
2023-04-28T14:42:37.467Z,17.35
2023-04-28T14:45:10.040Z,17.40
2023-04-28T14:47:39.443Z,17.59
2023-04-28T14:50:10.369Z,17.58
2023-04-28T14:52:39.478Z,17.36
2023-04-28T14:55:07.881Z,17.30
2023-04-28T14:57:37.808Z,17.62
2023-04-28T15:00:08.501Z,16.96
2023-04-28T15:02:37.188Z,17.07
2023-04-28T15:05:06.246Z,17.01
2023-04-28T15:07:34.860Z,17.18
2023-04-28T15:10:02.811Z,17.07
2023-04-28T15:12:32.034Z,17.41
2023-04-28T15:15:00.251Z,17.93
2023-04-28T15:17:28.675Z,18.11
2023-04-28T15:19:57.337Z,18.21
2023-04-28T15:22:25.270Z,17.78
2023-04-28T15:24:53.308Z,17.70
2023-04-28T15:27:21.355Z,17.41
2023-04-28T15:29:50.551Z,17.35
2023-04-28T15:32:19.197Z,17.62
2023-04-28T15:34:48.197Z,17.42
2023-04-28T15:37:52.337Z,17.00
2023-04-28T15:40:21.689Z,16.52
2023-04-28T15:42:53.235Z,16.35
2023-04-28T15:45:22.067Z,15.97
2023-04-28T15:47:51.136Z,15.85
2023-04-28T15:50:20.436Z,15.91
2023-04-28T15:52:50.244Z,16.07
2023-04-28T15:55:23.312Z,16.15
2023-04-28T15:57:54.983Z,16.25
2023-04-28T16:00:23.328Z,15.97
2023-04-28T16:02:51.322Z,15.71
2023-04-28T16:05:19.729Z,15.38
2023-04-28T16:07:48.648Z,14.98
2023-04-28T16:10:17.359Z,14.76
2023-04-28T16:12:45.832Z,14.74
2023-04-28T16:15:14.755Z,14.42
2023-04-28T16:17:44.478Z,14.50
2023-04-28T16:20:12.695Z,14.51
2023-04-28T16:22:42.684Z,14.51
2023-04-28T16:25:12.386Z,14.17
2023-04-28T16:27:41.832Z,14.12
2023-04-28T16:30:10.654Z,14.43
2023-04-28T16:32:38.913Z,14.66
2023-04-28T16:35:15.218Z,14.72
2023-04-28T16:37:44.568Z,14.82
2023-04-28T16:40:13.767Z,14.78
2023-04-28T16:42:43.604Z,14.79
2023-04-28T16:45:15.148Z,14.93
2023-04-28T16:47:43.923Z,14.90
2023-04-28T16:50:14.848Z,15.15
2023-04-28T16:52:43.657Z,15.18
2023-04-28T16:55:11.758Z,15.13
2023-04-28T16:57:40.104Z,15.17
2023-04-28T17:00:09.664Z,15.15
2023-04-28T17:02:38.349Z,15.18
2023-04-28T17:05:07.420Z,15.18
2023-04-28T17:07:35.781Z,15.18
2023-04-28T17:10:03.975Z,14.98
2023-04-28T17:12:31.976Z,15.05
2023-04-28T17:15:00.179Z,14.70
2023-04-28T17:17:29.240Z,14.46
2023-04-28T17:19:58.906Z,13.86
2023-04-28T17:22:27.258Z,13.28
2023-04-28T17:24:55.117Z,12.84
2023-04-28T17:27:23.966Z,12.41
2023-04-28T17:29:52.475Z,12.21
2023-04-28T17:32:20.658Z,11.89
2023-04-28T17:34:49.041Z,11.58
2023-04-28T17:37:17.718Z,11.35
2023-04-28T17:39:45.621Z,11.21
2023-04-28T17:42:13.466Z,11.14
2023-04-28T17:44:41.578Z,10.99
2023-04-28T17:47:09.859Z,10.76
2023-04-28T17:49:40.628Z,10.58
2023-04-28T17:52:09.309Z,10.39
2023-04-28T17:54:37.287Z,10.21
2023-04-28T17:57:05.290Z,10.01
2023-04-28T17:59:35.356Z,9.87
2023-04-28T18:02:03.626Z,9.83
2023-04-28T18:04:32.160Z,9.80
2023-04-28T18:07:02.472Z,9.80
2023-04-28T18:09:32.254Z,9.51
2023-04-28T18:12:03.172Z,9.32
2023-04-28T18:14:31.912Z,9.22
2023-04-28T18:17:00.268Z,9.10
2023-04-28T18:19:30.563Z,9.01
2023-04-28T18:21:59.090Z,9.00
2023-04-28T18:24:27.510Z,8.95
2023-04-28T18:26:55.776Z,8.91
2023-04-28T18:29:24.146Z,8.89
2023-04-28T18:31:52.428Z,8.80
2023-04-28T18:34:21.407Z,8.77
2023-04-28T18:36:50.293Z,8.67
2023-04-28T18:39:18.754Z,8.48
2023-04-28T18:41:47.399Z,8.31
2023-04-28T18:44:15.742Z,8.18
2023-04-28T18:46:44.266Z,8.12
2023-04-28T18:49:13.237Z,8.07
2023-04-28T18:51:41.890Z,8.03
2023-04-28T18:54:10.386Z,7.99
2023-04-28T18:56:40.432Z,7.95
2023-04-28T18:59:09.703Z,7.91
2023-04-28T19:01:39.188Z,7.87
2023-04-28T19:04:09.340Z,7.82
2023-04-28T19:06:37.849Z,7.76
2023-04-28T19:09:06.065Z,7.74
2023-04-28T19:11:34.891Z,7.73
2023-04-28T19:14:02.968Z,7.65
2023-04-28T19:16:36.506Z,7.60
2023-04-28T19:19:08.994Z,7.54
2023-04-28T19:21:44.603Z,7.43
2023-04-28T19:24:13.236Z,7.35
2023-04-28T19:26:41.429Z,7.30
2023-04-28T19:29:09.873Z,7.21
2023-04-28T19:31:38.690Z,7.15
2023-04-28T19:34:07.124Z,7.10
2023-04-28T19:36:36.095Z,7.09
2023-04-28T19:39:08.564Z,7.05
2023-04-28T19:41:37.428Z,7.03
2023-04-28T19:44:07.459Z,6.96
2023-04-28T19:46:37.495Z,6.90
2023-04-28T19:49:05.728Z,6.92
2023-04-28T19:51:33.929Z,6.91
2023-04-28T19:54:02.273Z,6.90
2023-04-28T19:56:33.052Z,6.80
2023-04-28T19:59:02.420Z,6.61
2023-04-28T20:01:31.267Z,6.53
2023-04-28T20:04:00.689Z,6.66
2023-04-28T20:06:29.861Z,6.65
2023-04-28T20:08:58.706Z,6.66
2023-04-28T20:11:27.118Z,6.58
2023-04-28T20:13:56.481Z,6.43
2023-04-28T20:16:26.131Z,6.32
2023-04-28T20:18:55.352Z,6.26
2023-04-28T20:21:23.846Z,6.23
2023-04-28T20:23:52.723Z,6.21
2023-04-28T20:26:21.471Z,6.10
2023-04-28T20:28:50.801Z,5.96
2023-04-28T20:31:19.876Z,6.01
2023-04-28T20:33:48.070Z,6.00
2023-04-28T20:36:16.482Z,5.96
2023-04-28T20:38:44.739Z,5.99
2023-04-28T20:41:14.033Z,5.84
2023-04-28T20:43:43.457Z,5.69
2023-04-28T20:46:15.677Z,5.60
2023-04-28T20:48:44.297Z,5.49
2023-04-28T20:51:12.757Z,5.49
2023-04-28T20:53:41.311Z,5.44
2023-04-28T20:56:09.591Z,5.39
2023-04-28T20:58:38.203Z,5.31
2023-04-28T21:01:07.115Z,5.30
2023-04-28T21:03:35.732Z,5.21
2023-04-28T21:06:04.093Z,5.20
2023-04-28T21:08:33.072Z,5.19
2023-04-28T21:11:01.351Z,5.21
2023-04-28T21:13:29.827Z,5.26
2023-04-28T21:15:58.057Z,5.25
2023-04-28T21:18:26.289Z,5.24
2023-04-28T21:20:54.810Z,5.16
2023-04-28T21:23:23.470Z,5.12
2023-04-28T21:25:51.435Z,5.02
2023-04-28T21:28:19.538Z,4.98
2023-04-28T21:30:47.801Z,4.98
2023-04-28T21:33:16.424Z,5.00
2023-04-28T21:35:44.453Z,5.00
2023-04-28T21:38:12.783Z,4.90
2023-04-28T21:40:41.068Z,4.90
2023-04-28T21:43:09.332Z,4.94
2023-04-28T21:45:37.740Z,4.96
2023-04-28T21:48:08.129Z,5.02
2023-04-28T21:50:36.959Z,4.93
2023-04-28T21:53:05.531Z,4.83
2023-04-28T21:55:33.984Z,4.78
2023-04-28T21:58:02.055Z,4.77
2023-04-28T22:00:30.435Z,4.78
2023-04-28T22:02:59.675Z,4.76
2023-04-28T22:05:27.790Z,4.76
2023-04-28T22:07:56.034Z,4.75
2023-04-28T22:10:24.300Z,4.72
2023-04-28T22:12:52.351Z,4.71
2023-04-28T22:15:20.456Z,4.68
2023-04-28T22:17:48.635Z,4.63
2023-04-28T22:20:16.701Z,4.67
2023-04-28T22:22:44.771Z,4.66
2023-04-28T22:25:13.010Z,4.62
2023-04-28T22:27:41.350Z,4.56
2023-04-28T22:30:10.181Z,4.49
2023-04-28T22:32:39.015Z,4.44
2023-04-28T22:35:08.291Z,4.43
2023-04-28T22:37:38.167Z,4.36
2023-04-28T22:40:09.541Z,4.30
2023-04-28T22:42:39.226Z,4.19
2023-04-28T22:45:07.939Z,4.13
2023-04-28T22:47:37.518Z,4.13
2023-04-28T22:50:08.316Z,4.16
2023-04-28T22:52:36.831Z,4.20
2023-04-28T22:55:06.604Z,4.19
2023-04-28T22:57:35.450Z,4.22
2023-04-28T23:00:04.211Z,4.26
2023-04-28T23:02:32.821Z,4.22
2023-04-28T23:05:01.370Z,4.16
2023-04-28T23:07:29.637Z,4.12
2023-04-28T23:09:57.545Z,4.09
2023-04-28T23:12:26.857Z,4.09
2023-04-28T23:14:55.359Z,4.15
2023-04-28T23:17:24.067Z,4.08
2023-04-28T23:19:52.531Z,4.08
2023-04-28T23:22:21.462Z,4.01
2023-04-28T23:24:49.311Z,3.96
2023-04-28T23:27:17.941Z,3.92
2023-04-28T23:29:45.904Z,3.88
2023-04-28T23:32:13.888Z,3.85
2023-04-28T23:34:42.917Z,3.85
2023-04-28T23:37:10.955Z,3.75
2023-04-28T23:39:38.962Z,3.73
2023-04-28T23:42:07.731Z,3.70
2023-04-28T23:44:35.838Z,3.73
2023-04-28T23:47:03.751Z,3.73
2023-04-28T23:49:31.804Z,3.78
2023-04-28T23:51:59.883Z,3.78
2023-04-28T23:54:27.774Z,3.77
2023-04-28T23:56:55.674Z,3.79
2023-04-28T23:59:24.254Z,3.81
